Weather at Yolo Ranch Airport

Public forecast

Using degrees Fahrenheit for public forecast. Weather courtesy of forecast.io.

Closest aviation weather report (METAR) to Yolo Ranch Airport

Closest report is Prescott International Airport - Ernest A. Love Field, 28.6 nm (53.0 km) ESE. Retrieved 2021/06/13 10:53 UTC (28 minutes ago):

KPRC 131053Z AUTO 22003KT 10SM CLR 14/M10 A3008 RMK AO2 SLP098 T01391100

Closest aviation forecast (TAF) to Yolo Ranch Airport

Closest forecast is Prescott International Airport - Ernest A. Love Field, 28.6 nm (53.0 km) ESE. Retrieved 2021/06/13 06:30 UTC (5 hours ago):

TAF KPRC 130527Z 1306/1406 19009KT P6SM SKC FM131900 22013G23KT P6SM SKC FM140300 20006KT P6SM SKC